createdAt,value
2018-01-26T01:37:19.044Z,29.71
2018-01-26T01:37:19.609Z,29.62
2018-01-26T01:37:20.221Z,29.62
2018-01-26T01:37:20.809Z,29.71
2018-01-26T01:37:21.409Z,29.71
2018-01-26T01:37:22.007Z,29.52
2018-01-26T01:37:22.607Z,29.62
2018-01-26T01:37:23.207Z,29.73
2018-01-26T01:38:17.205Z,29.90
2018-01-26T01:38:17.772Z,29.43
2018-01-26T01:38:18.371Z,29.90
2018-01-26T01:38:18.973Z,29.52
2018-01-26T01:38:19.572Z,29.53
2018-01-26T01:38:20.171Z,29.90
2018-01-26T01:38:20.771Z,29.44
2018-01-26T01:39:34.798Z,29.44
2018-01-26T01:39:35.394Z,29.33
2018-01-26T01:39:35.990Z,29.33
2018-01-26T01:39:36.653Z,29.33
2018-01-26T01:39:37.190Z,29.63
2018-01-26T01:39:37.789Z,29.25
2018-01-26T01:39:38.389Z,29.52
2018-01-26T01:40:32.446Z,29.44
2018-01-26T01:40:33.044Z,29.43
2018-01-26T01:40:33.643Z,29.33
2018-01-26T01:40:34.245Z,29.44
2018-01-26T01:40:34.843Z,29.14
2018-01-26T01:40:35.448Z,29.43
2018-01-26T01:40:36.043Z,29.44
2018-01-26T01:41:29.588Z,29.05
2018-01-26T01:41:30.190Z,28.96
2018-01-26T01:41:30.786Z,29.14
2018-01-26T01:41:31.386Z,28.96
2018-01-26T01:41:31.984Z,28.77
2018-01-26T01:41:32.584Z,28.97
2018-01-26T01:41:33.185Z,28.77
2018-01-26T01:41:33.786Z,28.77
2018-01-26T01:42:27.855Z,29.14
2018-01-26T01:42:28.450Z,29.16
2018-01-26T01:42:29.049Z,29.14
2018-01-26T01:42:29.661Z,28.68
2018-01-26T01:42:30.251Z,29.16
2018-01-26T01:42:30.849Z,29.24
2018-01-26T01:42:31.449Z,29.24
2018-01-26T01:43:25.024Z,28.78
2018-01-26T01:43:25.593Z,28.86
2018-01-26T01:43:26.192Z,28.57
2018-01-26T01:43:26.793Z,28.67
2018-01-26T01:43:27.391Z,28.88
2018-01-26T01:43:27.992Z,28.57
2018-01-26T01:43:28.593Z,28.67
2018-01-26T01:43:29.191Z,28.67
2018-01-26T01:44:27.254Z,28.67
2018-01-26T01:44:27.851Z,28.78
2018-01-26T01:44:28.450Z,28.86
2018-01-26T01:44:29.050Z,28.86
2018-01-26T01:44:29.651Z,28.77
2018-01-26T01:44:30.250Z,28.86
2018-01-26T01:44:30.853Z,28.67
2018-01-26T01:45:24.908Z,28.96
2018-01-26T01:45:25.507Z,28.97
2018-01-26T01:45:26.102Z,28.96
2018-01-26T01:45:26.702Z,28.96
2018-01-26T01:45:27.302Z,28.96
2018-01-26T01:45:27.902Z,28.96
2018-01-26T01:45:28.510Z,28.96
2018-01-26T01:46:22.558Z,28.67
2018-01-26T01:46:23.154Z,28.57
2018-01-26T01:46:23.753Z,28.67
2018-01-26T01:46:24.356Z,28.57
2018-01-26T01:46:24.957Z,28.57
2018-01-26T01:46:25.553Z,28.67
2018-01-26T01:46:26.152Z,28.77
2018-01-26T01:47:20.210Z,28.48
2018-01-26T01:47:20.809Z,28.57
2018-01-26T01:47:21.407Z,28.29
2018-01-26T01:47:22.006Z,28.11
2018-01-26T01:47:22.606Z,28.40
2018-01-26T01:47:23.243Z,28.57
2018-01-26T01:47:23.804Z,28.40
2018-01-26T01:48:17.895Z,28.30
2018-01-26T01:48:18.461Z,28.21
2018-01-26T01:48:19.059Z,28.30
2018-01-26T01:48:19.657Z,28.40
2018-01-26T01:48:20.259Z,28.19
2018-01-26T01:48:20.858Z,28.30
2018-01-26T01:48:21.456Z,28.40
2018-01-26T01:49:15.518Z,28.30
2018-01-26T01:49:16.112Z,28.11
2018-01-26T01:49:16.714Z,28.21
2018-01-26T01:49:17.309Z,28.11
2018-01-26T01:49:17.909Z,28.11
2018-01-26T01:49:18.512Z,28.11
2018-01-26T01:49:19.110Z,28.11
2018-01-26T01:50:14.198Z,27.92
2018-01-26T01:50:14.785Z,27.55
2018-01-26T01:50:15.385Z,27.73
2018-01-26T01:50:15.986Z,27.83
2018-01-26T01:50:16.585Z,27.83
2018-01-26T01:50:17.187Z,27.83
2018-01-26T01:51:11.739Z,27.36
2018-01-26T01:51:12.334Z,27.36
2018-01-26T01:51:12.937Z,27.07
2018-01-26T01:51:13.534Z,27.64
2018-01-26T01:51:14.132Z,27.36
2018-01-26T01:51:14.734Z,27.26
2018-01-26T01:51:15.332Z,27.07
2018-01-26T01:52:09.393Z,27.26
2018-01-26T01:52:09.987Z,26.88
2018-01-26T01:52:10.587Z,27.16
2018-01-26T01:52:11.188Z,26.88
2018-01-26T01:52:11.788Z,27.07
2018-01-26T01:52:12.388Z,26.97
2018-01-26T01:52:12.986Z,27.07
2018-01-26T01:53:07.043Z,26.69
2018-01-26T01:53:07.641Z,26.88
2018-01-26T01:53:08.239Z,26.78
2018-01-26T01:53:08.839Z,26.78
2018-01-26T01:53:09.439Z,26.97
2018-01-26T01:53:10.038Z,26.97
2018-01-26T01:53:10.638Z,26.97
2018-01-26T01:54:04.728Z,26.40
2018-01-26T01:54:05.290Z,26.31
2018-01-26T01:54:05.890Z,26.59
2018-01-26T01:54:06.491Z,26.31
2018-01-26T01:54:07.090Z,26.59
2018-01-26T01:54:07.689Z,26.31
2018-01-26T01:54:08.289Z,26.69
2018-01-26T01:55:02.344Z,26.40
2018-01-26T01:55:02.942Z,26.40
2018-01-26T01:55:03.542Z,26.31
2018-01-26T01:55:04.141Z,26.31
2018-01-26T01:55:04.742Z,26.21
2018-01-26T01:55:05.342Z,26.31
2018-01-26T01:55:05.941Z,26.21
2018-01-26T01:56:00.001Z,25.55
2018-01-26T01:56:00.594Z,25.55
2018-01-26T01:56:01.193Z,25.64
2018-01-26T01:56:01.792Z,25.93
2018-01-26T01:56:02.393Z,25.84
2018-01-26T01:56:02.994Z,25.64
2018-01-26T01:56:03.592Z,25.55
2018-01-26T01:56:57.650Z,25.93
2018-01-26T01:56:58.246Z,25.74
2018-01-26T01:56:58.845Z,25.84
2018-01-26T01:56:59.444Z,25.74
2018-01-26T01:57:00.630Z,25.84
2018-01-26T01:57:01.152Z,25.84
2018-01-26T01:58:15.187Z,25.93
2018-01-26T01:58:15.764Z,25.85
2018-01-26T01:58:16.362Z,25.74
2018-01-26T01:58:16.963Z,25.84
2018-01-26T01:58:17.563Z,25.64
2018-01-26T01:58:18.162Z,25.64
2018-01-26T01:58:18.763Z,25.74
2018-01-26T01:59:12.852Z,25.27
2018-01-26T01:59:13.415Z,25.55
2018-01-26T01:59:14.023Z,25.17
2018-01-26T01:59:14.614Z,25.07
2018-01-26T01:59:15.215Z,25.17
2018-01-26T01:59:15.814Z,25.26
2018-01-26T01:59:16.414Z,25.17
2018-01-26T02:00:10.471Z,25.36
2018-01-26T02:00:11.068Z,25.45
2018-01-26T02:00:11.666Z,25.27
2018-01-26T02:00:12.316Z,25.64
2018-01-26T02:00:12.943Z,25.46
2018-01-26T02:00:13.467Z,25.27
2018-01-26T02:00:14.073Z,25.27
2018-01-26T02:01:08.121Z,25.37
2018-01-26T02:01:08.718Z,25.27
2018-01-26T02:01:09.318Z,25.56
2018-01-26T02:01:09.917Z,25.37
2018-01-26T02:01:10.517Z,25.46
2018-01-26T02:01:11.118Z,25.37
2018-01-26T02:01:11.717Z,25.27
2018-01-26T02:02:05.773Z,25.27
2018-01-26T02:02:06.370Z,25.27
2018-01-26T02:02:06.971Z,25.56
2018-01-26T02:02:07.569Z,25.37
2018-01-26T02:02:08.170Z,25.37
2018-01-26T02:02:08.770Z,25.65
2018-01-26T02:02:09.370Z,25.27
2018-01-26T02:03:03.424Z,25.94
2018-01-26T02:03:04.022Z,25.85
2018-01-26T02:03:04.620Z,25.85
2018-01-26T02:03:05.222Z,25.75
2018-01-26T02:03:05.820Z,25.85
2018-01-26T02:03:06.424Z,25.56
2018-01-26T02:03:07.020Z,25.65
2018-01-26T02:04:08.046Z,25.65
2018-01-26T02:04:08.639Z,25.75
2018-01-26T02:04:09.272Z,25.65
2018-01-26T02:04:09.835Z,25.85
2018-01-26T02:04:10.436Z,25.75
2018-01-26T02:04:11.036Z,25.85
2018-01-26T02:04:11.634Z,25.65
2018-01-26T02:04:12.234Z,25.75
2018-01-26T02:04:12.835Z,25.75
2018-01-26T02:04:13.433Z,25.75
2018-01-26T02:04:14.034Z,25.75
2018-01-26T02:04:14.634Z,25.75
2018-01-26T02:06:16.965Z,26.42
2018-01-26T02:06:17.529Z,26.61
2018-01-26T02:06:18.124Z,26.32
2018-01-26T02:06:18.723Z,26.42
2018-01-26T02:06:19.325Z,26.61
2018-01-26T02:06:19.971Z,26.61
2018-01-26T02:06:20.524Z,26.42
2018-01-26T02:06:21.123Z,26.51
2018-01-26T02:06:21.724Z,26.61
2018-01-26T02:06:22.325Z,26.61
2018-01-26T02:07:49.842Z,26.79
2018-01-26T02:52:50.172Z,56.13
2018-01-26T02:52:50.745Z,56.13
2018-01-26T02:52:51.340Z,56.13
2018-01-26T02:52:51.945Z,56.13
2018-01-26T02:52:52.543Z,55.76
2018-01-26T02:52:53.144Z,55.76
2018-01-26T02:52:53.739Z,55.76
2018-01-26T02:53:47.795Z,54.43
2018-01-26T02:53:48.394Z,54.52
2018-01-26T02:53:48.995Z,54.33
2018-01-26T02:53:49.592Z,54.61
2018-01-26T02:53:50.198Z,54.43
2018-01-26T02:53:50.793Z,54.43
2018-01-26T02:53:51.392Z,54.43
2018-01-26T02:54:45.449Z,53.95
2018-01-26T02:54:46.067Z,54.14
2018-01-26T02:54:46.650Z,54.14
2018-01-26T02:54:47.244Z,54.14
2018-01-26T02:54:47.844Z,54.14
2018-01-26T02:54:48.446Z,54.14
2018-01-26T02:54:49.045Z,54.14
2018-01-26T02:55:42.629Z,53.00
2018-01-26T02:55:43.187Z,53.09
2018-01-26T02:55:43.787Z,53.09
2018-01-26T02:55:44.389Z,53.09
2018-01-26T02:55:44.987Z,53.09
2018-01-26T02:55:45.587Z,53.19
2018-01-26T02:55:46.189Z,53.00
2018-01-26T02:55:46.794Z,53.09
2018-01-26T02:56:40.753Z,52.33
2018-01-26T02:56:41.349Z,52.24
2018-01-26T02:56:41.949Z,52.72
2018-01-26T02:56:42.549Z,52.24
2018-01-26T02:56:43.148Z,52.72
2018-01-26T02:56:43.750Z,52.72
2018-01-26T02:56:44.353Z,52.62
2018-01-26T02:57:58.376Z,51.10
2018-01-26T02:57:58.970Z,51.01
2018-01-26T02:57:59.568Z,51.20
2018-01-26T02:58:00.170Z,51.01
2018-01-26T02:58:00.769Z,50.91
2018-01-26T02:58:01.366Z,50.81
2018-01-26T02:58:01.968Z,50.81
2018-01-26T02:58:56.029Z,50.15
2018-01-26T02:58:56.622Z,50.15
2018-01-26T02:58:57.222Z,49.96
2018-01-26T02:58:57.821Z,50.05
2018-01-26T02:58:58.421Z,50.24
2018-01-26T02:58:59.026Z,50.15
2018-01-26T02:58:59.623Z,50.05
2018-01-26T02:59:53.171Z,49.29
2018-01-26T02:59:53.764Z,49.29
2018-01-26T02:59:54.363Z,49.20
2018-01-26T02:59:54.962Z,49.20
2018-01-26T02:59:55.563Z,49.29
2018-01-26T02:59:56.163Z,49.10
2018-01-26T02:59:56.762Z,49.20
2018-01-26T02:59:57.361Z,49.01
2018-01-26T03:00:51.358Z,48.44
2018-01-26T03:00:51.937Z,48.35
2018-01-26T03:00:52.527Z,48.44
2018-01-26T03:00:53.128Z,48.35
2018-01-26T03:00:53.726Z,48.44
2018-01-26T03:00:54.325Z,48.25
2018-01-26T03:00:54.924Z,48.44
2018-01-26T03:02:08.969Z,46.92
2018-01-26T03:02:09.548Z,46.92
2018-01-26T03:02:10.145Z,46.92
2018-01-26T03:02:10.745Z,46.92
2018-01-26T03:02:11.351Z,47.02
2018-01-26T03:02:11.944Z,46.83
2018-01-26T03:02:12.543Z,46.83
2018-01-26T03:03:06.091Z,46.45
2018-01-26T03:03:06.692Z,46.16
2018-01-26T03:03:07.285Z,46.45
2018-01-26T03:03:07.886Z,46.16
2018-01-26T03:03:08.486Z,46.16
2018-01-26T03:03:09.085Z,46.25
2018-01-26T03:03:09.684Z,46.16
2018-01-26T03:03:10.285Z,46.35
2018-01-26T03:04:04.253Z,45.59
2018-01-26T03:04:04.855Z,45.59
2018-01-26T03:04:05.450Z,45.78
2018-01-26T03:04:06.048Z,45.59
2018-01-26T03:04:06.650Z,45.50
2018-01-26T03:04:07.269Z,45.50
2018-01-26T03:04:07.849Z,45.50
2018-01-26T03:05:21.871Z,44.76
2018-01-26T03:05:22.470Z,44.64
2018-01-26T03:05:23.070Z,44.67
2018-01-26T03:05:23.669Z,44.67
2018-01-26T03:05:24.268Z,44.35
2018-01-26T03:05:24.868Z,44.35
2018-01-26T03:05:25.469Z,44.45
2018-01-26T03:06:19.550Z,44.09
2018-01-26T03:06:20.120Z,44.00
2018-01-26T03:06:20.721Z,43.98
2018-01-26T03:06:21.320Z,43.98
2018-01-26T03:06:21.920Z,43.88
2018-01-26T03:06:22.521Z,43.88
2018-01-26T03:06:23.120Z,43.88
2018-01-26T03:07:16.666Z,43.41
2018-01-26T03:07:17.262Z,43.31
2018-01-26T03:07:17.861Z,43.41
2018-01-26T03:07:18.461Z,43.41
2018-01-26T03:07:19.062Z,43.43
2018-01-26T03:07:19.662Z,43.41
2018-01-26T03:07:20.261Z,43.31
2018-01-26T03:07:20.861Z,43.21
2018-01-26T03:08:14.829Z,42.93
2018-01-26T03:08:15.423Z,42.86
2018-01-26T03:08:16.023Z,42.95
2018-01-26T03:08:16.622Z,42.76
2018-01-26T03:08:17.225Z,42.86
2018-01-26T03:08:17.824Z,43.05
2018-01-26T03:08:18.422Z,42.95
2018-01-26T03:09:32.454Z,42.38
2018-01-26T03:09:33.045Z,42.38
2018-01-26T03:09:33.650Z,42.29
2018-01-26T03:09:34.245Z,42.38
2018-01-26T03:09:34.846Z,42.47
2018-01-26T03:09:35.444Z,42.29
2018-01-26T03:09:36.044Z,42.47
2018-01-26T03:10:29.589Z,42.10
2018-01-26T03:10:30.184Z,42.10
2018-01-26T03:10:30.784Z,42.19
2018-01-26T03:10:31.385Z,42.19
2018-01-26T03:10:31.989Z,42.19
2018-01-26T03:10:32.585Z,42.19
2018-01-26T03:10:33.184Z,42.10
2018-01-26T03:10:33.785Z,42.29
2018-01-26T03:11:27.784Z,42.10
2018-01-26T03:11:28.354Z,42.10
2018-01-26T03:11:28.955Z,41.91
2018-01-26T03:11:29.556Z,41.91
2018-01-26T03:11:30.150Z,42.00
2018-01-26T03:11:30.747Z,41.91
2018-01-26T03:11:31.356Z,41.81
2018-01-26T03:12:45.371Z,41.62
2018-01-26T03:12:45.968Z,41.81
2018-01-26T03:12:46.568Z,42.19
2018-01-26T03:12:47.168Z,42.19
2018-01-26T03:12:47.769Z,42.00
2018-01-26T03:12:48.368Z,41.81
2018-01-26T03:12:48.966Z,41.81
2018-01-26T03:13:43.022Z,41.81
2018-01-26T03:13:43.624Z,41.91
2018-01-26T03:13:44.220Z,41.72
2018-01-26T03:13:44.821Z,41.81
2018-01-26T03:13:45.419Z,41.91
2018-01-26T03:13:46.022Z,41.81
2018-01-26T03:13:46.620Z,42.00
2018-01-26T03:14:40.674Z,42.00
2018-01-26T03:14:41.270Z,42.00
2018-01-26T03:14:41.869Z,41.81
2018-01-26T03:14:42.470Z,41.91
2018-01-26T03:14:43.070Z,41.72
2018-01-26T03:14:43.671Z,42.00
2018-01-26T03:14:44.270Z,42.00
2018-01-26T03:15:38.328Z,42.29
2018-01-26T03:15:38.923Z,42.19
2018-01-26T03:15:39.522Z,42.38
2018-01-26T03:15:40.132Z,42.38
2018-01-26T03:15:40.722Z,42.29
2018-01-26T03:15:41.322Z,42.29
2018-01-26T03:15:41.925Z,42.19
2018-01-26T03:16:36.007Z,42.38
2018-01-26T03:16:36.574Z,42.47
2018-01-26T03:16:37.173Z,42.47
2018-01-26T03:16:37.777Z,42.29
2018-01-26T03:16:38.373Z,42.47
2018-01-26T03:16:38.974Z,42.38
2018-01-26T03:16:39.575Z,42.38
2018-01-26T03:17:33.628Z,42.95
2018-01-26T03:17:34.226Z,42.95
2018-01-26T03:17:34.825Z,42.86
2018-01-26T03:17:35.425Z,42.86
2018-01-26T03:17:36.025Z,42.95
2018-01-26T03:17:36.625Z,42.86
2018-01-26T03:17:37.225Z,42.86
2018-01-26T03:18:31.281Z,43.24
2018-01-26T03:18:31.879Z,43.43
2018-01-26T03:18:32.477Z,43.33
2018-01-26T03:18:33.080Z,43.43
2018-01-26T03:18:33.678Z,43.43
2018-01-26T03:18:34.278Z,43.24
2018-01-26T03:18:34.876Z,43.43
2018-01-26T03:19:28.936Z,44.09
2018-01-26T03:19:29.528Z,44.09
2018-01-26T03:19:30.129Z,43.90
2018-01-26T03:19:31.407Z,44.19
2018-01-26T03:19:31.915Z,44.00
2018-01-26T03:19:32.516Z,43.90
2018-01-26T03:20:26.483Z,44.76
2018-01-26T03:20:27.079Z,44.76
2018-01-26T03:20:27.684Z,44.85
2018-01-26T03:20:28.276Z,44.76
2018-01-26T03:20:28.880Z,45.14
2018-01-26T03:20:29.476Z,44.67
2018-01-26T03:20:30.078Z,45.14
2018-01-26T03:21:43.619Z,46.19
2018-01-26T03:21:44.188Z,46.09
2018-01-26T03:21:44.787Z,46.28
2018-01-26T03:21:45.389Z,46.00
2018-01-26T03:21:45.987Z,46.11
2018-01-26T03:21:46.586Z,46.19
2018-01-26T03:21:47.186Z,46.19
2018-01-26T03:21:47.790Z,46.19
2018-01-26T03:22:41.754Z,47.04
2018-01-26T03:22:42.355Z,46.97
2018-01-26T03:22:42.951Z,46.94
2018-01-26T03:22:43.550Z,46.94
2018-01-26T03:22:44.149Z,47.06
2018-01-26T03:22:44.751Z,46.94
2018-01-26T03:22:45.350Z,47.06
2018-01-26T03:23:59.374Z,48.58
2018-01-26T03:23:59.970Z,48.68
2018-01-26T03:24:00.571Z,49.15
2018-01-26T03:24:01.172Z,48.66
2018-01-26T03:24:01.770Z,48.66
2018-01-26T03:24:02.369Z,48.87
2018-01-26T03:24:02.971Z,48.96
2018-01-26T03:24:57.027Z,50.10
2018-01-26T03:24:57.622Z,50.10
2018-01-26T03:24:58.221Z,50.10
2018-01-26T03:24:58.821Z,49.91
2018-01-26T03:24:59.425Z,50.01
2018-01-26T03:25:00.030Z,49.91
2018-01-26T03:25:00.622Z,50.10
2018-01-26T03:25:54.677Z,51.72
2018-01-26T03:25:55.274Z,51.72
2018-01-26T03:25:55.874Z,51.62
2018-01-26T03:25:56.472Z,51.53
2018-01-26T03:25:57.072Z,51.60
2018-01-26T03:25:57.673Z,51.53
2018-01-26T03:25:58.272Z,51.62
2018-01-26T03:26:52.355Z,52.76
2018-01-26T03:26:52.925Z,52.67
2018-01-26T03:26:53.524Z,52.96
2018-01-26T03:26:54.124Z,52.96
2018-01-26T03:26:54.726Z,53.05
2018-01-26T03:26:55.324Z,53.15
2018-01-26T03:26:55.924Z,53.05
2018-01-26T03:27:49.979Z,54.00
2018-01-26T03:27:50.581Z,53.91
2018-01-26T03:27:51.177Z,53.81
2018-01-26T03:27:51.778Z,53.81
2018-01-26T03:27:52.377Z,54.10
2018-01-26T03:27:52.977Z,54.10
2018-01-26T03:27:53.576Z,53.91
2018-01-26T03:28:47.632Z,55.24
2018-01-26T03:28:48.228Z,55.15
2018-01-26T03:28:48.829Z,55.24
2018-01-26T03:28:49.428Z,55.15
2018-01-26T03:28:50.027Z,55.05
2018-01-26T03:28:50.627Z,54.96
2018-01-26T03:28:51.228Z,55.05
2018-01-26T03:29:45.284Z,56.00
2018-01-26T03:29:45.883Z,55.81
2018-01-26T03:29:46.495Z,56.00
2018-01-26T03:29:47.080Z,56.00
2018-01-26T03:29:47.680Z,56.19
2018-01-26T03:29:48.280Z,56.57
2018-01-26T03:29:48.879Z,56.57
2018-01-26T03:30:42.935Z,57.24
2018-01-26T03:30:43.536Z,57.43
2018-01-26T03:30:44.132Z,57.52
2018-01-26T03:30:44.732Z,56.95
2018-01-26T03:30:45.333Z,57.04
2018-01-26T03:30:45.931Z,57.62
2018-01-26T03:30:46.531Z,57.62
2018-01-26T03:31:40.625Z,58.57
2018-01-26T03:31:41.182Z,58.57
2018-01-26T03:31:41.782Z,58.47
2018-01-26T03:31:42.382Z,58.37
2018-01-26T03:31:42.981Z,58.28
2018-01-26T03:31:43.581Z,58.37
2018-01-26T03:31:44.181Z,58.47
2018-01-26T03:32:38.265Z,59.80
2018-01-26T03:32:38.836Z,59.90
2018-01-26T03:32:39.435Z,59.42
2018-01-26T03:32:40.037Z,59.90
2018-01-26T03:32:40.634Z,59.42
2018-01-26T03:32:41.236Z,59.71
2018-01-26T03:32:41.835Z,59.52
2018-01-26T03:33:35.889Z,60.66
2018-01-26T03:33:36.490Z,60.85
2018-01-26T03:33:37.086Z,60.85
2018-01-26T03:33:37.685Z,60.85
2018-01-26T03:33:38.285Z,60.66
2018-01-26T03:33:38.888Z,60.57
2018-01-26T03:33:39.485Z,60.66
2018-01-26T03:34:33.542Z,61.23
2018-01-26T03:34:34.139Z,61.23
2018-01-26T03:34:34.738Z,61.13
2018-01-26T03:34:35.337Z,61.23
2018-01-26T03:34:35.939Z,61.23
2018-01-26T03:34:36.538Z,61.52
2018-01-26T03:34:37.139Z,61.42
2018-01-26T03:35:30.684Z,61.99
2018-01-26T03:35:31.279Z,61.90
2018-01-26T03:35:31.888Z,61.99
2018-01-26T03:35:32.480Z,61.90
2018-01-26T03:35:33.079Z,62.37
2018-01-26T03:35:33.679Z,62.37
2018-01-26T03:35:34.277Z,62.56
2018-01-26T03:35:34.878Z,62.46
2018-01-26T03:36:28.948Z,62.37
2018-01-26T03:36:29.568Z,62.46
2018-01-26T03:36:30.145Z,62.65
2018-01-26T03:36:30.743Z,62.46
2018-01-26T03:36:31.345Z,62.37
2018-01-26T03:36:31.942Z,62.46
2018-01-26T03:36:32.542Z,62.37
2018-01-26T03:37:26.125Z,62.65
2018-01-26T03:37:26.687Z,62.46
2018-01-26T03:37:27.284Z,62.37
2018-01-26T03:37:27.884Z,62.37
2018-01-26T03:37:28.485Z,62.46
2018-01-26T03:37:29.086Z,62.65
2018-01-26T03:37:29.684Z,62.65
2018-01-26T03:37:30.284Z,62.65
2018-01-26T03:38:24.353Z,63.60
2018-01-26T03:38:24.950Z,63.51
2018-01-26T03:38:25.549Z,63.51
2018-01-26T03:38:26.149Z,63.60
2018-01-26T03:38:26.748Z,63.60
2018-01-26T03:38:27.350Z,63.42
2018-01-26T03:38:27.948Z,63.60
2018-01-26T03:39:22.012Z,64.18
2018-01-26T03:39:22.599Z,64.08
2018-01-26T03:39:23.200Z,64.08
2018-01-26T03:39:23.800Z,64.08
2018-01-26T03:39:24.399Z,64.08
2018-01-26T03:39:25.000Z,64.08
2018-01-26T03:39:25.599Z,64.27
2018-01-26T03:40:19.690Z,64.56
2018-01-26T03:40:20.252Z,64.75
2018-01-26T03:40:20.854Z,64.65
2018-01-26T03:40:21.453Z,65.03
2018-01-26T03:40:22.052Z,64.75
2018-01-26T03:40:22.653Z,65.03
2018-01-26T03:40:23.253Z,64.84
2018-01-26T03:41:17.308Z,65.51
2018-01-26T03:41:17.905Z,65.60
2018-01-26T03:41:18.507Z,65.70
2018-01-26T03:41:19.104Z,65.41
2018-01-26T03:41:19.704Z,65.60
2018-01-26T03:41:20.304Z,65.70
2018-01-26T03:41:20.903Z,65.51
2018-01-26T03:42:14.960Z,66.17
2018-01-26T03:42:15.558Z,66.36
2018-01-26T03:42:16.156Z,66.46
2018-01-26T03:42:16.758Z,66.36
2018-01-26T03:42:17.356Z,66.36
2018-01-26T03:42:17.955Z,66.36
2018-01-26T03:42:18.557Z,66.36
2018-01-26T03:43:12.134Z,66.84
2018-01-26T03:43:12.697Z,67.32
2018-01-26T03:43:13.297Z,67.03
2018-01-26T03:43:13.899Z,67.03
2018-01-26T03:43:14.497Z,67.22
2018-01-26T03:43:15.098Z,67.22
2018-01-26T03:43:15.701Z,67.03
2018-01-26T03:43:16.297Z,67.22
2018-01-26T03:44:10.364Z,67.88
2018-01-26T03:44:10.963Z,67.41
2018-01-26T03:44:11.562Z,67.50
2018-01-26T03:44:12.164Z,67.60
2018-01-26T03:44:12.762Z,67.69
2018-01-26T03:44:13.362Z,67.50
2018-01-26T03:44:13.962Z,67.69
2018-01-26T03:45:08.017Z,68.17
2018-01-26T03:45:08.616Z,68.36
2018-01-26T03:45:09.212Z,68.27
2018-01-26T03:45:09.815Z,68.27
2018-01-26T03:45:10.413Z,68.27
2018-01-26T03:45:11.014Z,68.17
2018-01-26T03:45:11.612Z,68.27
2018-01-26T03:46:05.159Z,68.74
2018-01-26T03:46:05.755Z,68.74
2018-01-26T03:46:06.355Z,68.74
2018-01-26T03:46:06.954Z,68.65
2018-01-26T03:46:07.554Z,68.74
2018-01-26T03:46:08.154Z,68.74
2018-01-26T03:46:08.754Z,68.74
2018-01-26T03:46:09.355Z,68.74
2018-01-26T03:47:03.422Z,69.69
2018-01-26T03:47:04.022Z,69.12
2018-01-26T03:47:04.623Z,69.12
2018-01-26T03:47:05.221Z,69.69
2018-01-26T03:47:05.818Z,69.69
2018-01-26T03:47:06.418Z,69.21
2018-01-26T03:47:07.019Z,69.60
2018-01-26T03:48:00.564Z,69.79
2018-01-26T03:48:01.161Z,69.60
2018-01-26T03:48:01.760Z,70.07
2018-01-26T03:48:02.360Z,69.69
2018-01-26T03:48:02.958Z,69.88
2018-01-26T03:48:03.560Z,69.88
2018-01-26T03:48:04.159Z,69.88
2018-01-26T03:48:04.758Z,69.98
2018-01-26T03:48:58.857Z,70.07
2018-01-26T03:48:59.426Z,70.17
2018-01-26T03:49:00.026Z,70.07
2018-01-26T03:49:00.626Z,70.17
2018-01-26T03:49:01.226Z,70.26
2018-01-26T03:49:01.838Z,70.36
2018-01-26T03:49:02.423Z,70.07
2018-01-26T03:49:56.480Z,71.02
2018-01-26T03:49:57.077Z,70.83
2018-01-26T03:49:57.676Z,71.02
2018-01-26T03:49:58.277Z,70.93
2018-01-26T03:49:58.876Z,71.02
2018-01-26T03:49:59.477Z,70.83
2018-01-26T03:50:00.077Z,71.12
2018-01-26T04:07:42.907Z,70.74
2018-01-26T04:07:43.476Z,70.74
2018-01-26T04:07:44.075Z,71.02
2018-01-26T04:07:44.674Z,70.93
2018-01-26T04:07:45.274Z,71.02
2018-01-26T04:07:45.873Z,71.02
2018-01-26T04:07:46.475Z,71.02
2018-01-26T04:08:45.040Z,70.45
2018-01-26T04:08:45.631Z,70.26
2018-01-26T04:08:46.231Z,70.54
2018-01-26T04:08:46.834Z,70.54
2018-01-26T04:08:47.431Z,70.26
2018-01-26T04:08:48.031Z,70.17
2018-01-26T04:08:48.656Z,70.45
2018-01-26T04:08:49.232Z,70.36
2018-01-26T04:08:49.831Z,70.17
2018-01-26T04:08:50.430Z,70.45
2018-01-26T04:08:51.112Z,70.26
2018-01-26T04:08:51.628Z,70.17
2018-01-26T04:08:52.228Z,70.17
2018-01-26T04:08:52.828Z,70.54
2018-01-26T04:08:53.428Z,70.54
2018-01-26T04:08:54.031Z,70.36
2018-01-26T04:10:08.085Z,70.07
2018-01-26T04:10:08.682Z,70.07
2018-01-26T04:10:09.282Z,70.17
2018-01-26T04:10:09.881Z,70.04
2018-01-26T04:10:10.478Z,69.85
2018-01-26T04:10:11.086Z,69.88
2018-01-26T04:10:11.703Z,70.07
2018-01-26T04:11:05.262Z,69.50
2018-01-26T04:11:05.820Z,69.50
2018-01-26T04:11:06.421Z,69.66
2018-01-26T04:11:07.020Z,69.46
2018-01-26T04:11:07.628Z,69.37
2018-01-26T04:11:08.221Z,69.50
2018-01-26T04:11:08.825Z,69.41
2018-01-26T04:11:09.419Z,69.37
2018-01-26T04:12:03.387Z,69.85
2018-01-26T04:12:03.988Z,69.75
2018-01-26T04:12:04.622Z,69.79
2018-01-26T04:12:05.194Z,70.04
2018-01-26T04:12:05.782Z,70.07
2018-01-26T04:12:06.384Z,69.75
2018-01-26T04:12:06.983Z,69.98
2018-01-26T04:13:20.497Z,69.02
2018-01-26T04:13:21.095Z,69.12
2018-01-26T04:13:21.694Z,69.12
2018-01-26T04:13:22.293Z,69.37
2018-01-26T04:13:22.893Z,69.12
2018-01-26T04:13:23.493Z,69.09
2018-01-26T04:13:24.094Z,69.31
2018-01-26T04:13:24.691Z,68.99
2018-01-26T04:14:18.660Z,68.71
2018-01-26T04:14:19.255Z,68.74
2018-01-26T04:14:19.856Z,68.80
2018-01-26T04:14:20.454Z,68.65
2018-01-26T04:14:21.054Z,68.71
2018-01-26T04:14:21.655Z,68.61
2018-01-26T04:14:22.255Z,68.84
2018-01-26T04:15:36.281Z,67.76
2018-01-26T04:15:36.877Z,67.79
2018-01-26T04:15:37.475Z,67.41
2018-01-26T04:15:38.125Z,67.41
2018-01-26T04:15:38.679Z,67.76
2018-01-26T04:15:39.277Z,67.66
2018-01-26T04:15:39.882Z,67.50
2018-01-26T04:16:33.962Z,66.80
2018-01-26T04:16:34.531Z,66.61
2018-01-26T04:16:35.127Z,66.90
2018-01-26T04:16:35.729Z,67.00
2018-01-26T04:16:36.328Z,66.90
2018-01-26T04:16:36.928Z,66.84
2018-01-26T04:16:37.530Z,66.71
2018-01-26T04:17:31.891Z,65.76
2018-01-26T04:17:32.487Z,65.86
2018-01-26T04:17:33.089Z,65.86
2018-01-26T04:17:33.687Z,65.80
2018-01-26T04:17:34.290Z,65.76
2018-01-26T04:17:34.888Z,65.57
2018-01-26T04:17:35.490Z,65.60
2018-01-26T04:17:36.085Z,65.89
2018-01-26T04:18:30.054Z,65.00
2018-01-26T04:18:30.656Z,64.81
2018-01-26T04:18:31.251Z,64.81
2018-01-26T04:18:31.851Z,64.84
2018-01-26T04:18:32.452Z,64.84
2018-01-26T04:18:33.050Z,64.84
2018-01-26T04:18:33.653Z,64.84
2018-01-26T04:19:47.674Z,64.53
2018-01-26T04:19:48.273Z,64.56
2018-01-26T04:19:48.871Z,64.34
2018-01-26T04:19:49.469Z,64.56
2018-01-26T04:19:50.071Z,64.84
2018-01-26T04:19:50.671Z,64.53
2018-01-26T04:19:51.271Z,64.27
2018-01-26T04:20:45.337Z,64.08
2018-01-26T04:20:45.952Z,63.95
2018-01-26T04:20:46.525Z,63.95
2018-01-26T04:20:47.129Z,64.05
2018-01-26T04:20:47.722Z,64.05
2018-01-26T04:20:48.321Z,63.95
2018-01-26T04:20:48.934Z,64.14
2018-01-26T04:21:42.502Z,64.18
2018-01-26T04:21:43.065Z,63.79
2018-01-26T04:21:43.662Z,63.95
2018-01-26T04:21:44.264Z,63.70
2018-01-26T04:21:44.862Z,64.27
2018-01-26T04:21:45.461Z,64.05
2018-01-26T04:21:46.063Z,63.76
2018-01-26T04:21:46.666Z,63.60
2018-01-26T04:22:40.629Z,63.23
2018-01-26T04:22:41.226Z,63.10
2018-01-26T04:22:41.826Z,63.10
2018-01-26T04:22:42.426Z,63.23
2018-01-26T04:22:43.025Z,63.32
2018-01-26T04:22:43.626Z,63.20
2018-01-26T04:22:44.225Z,63.20
2018-01-26T04:23:57.739Z,62.81
2018-01-26T04:23:58.334Z,62.94
2018-01-26T04:23:58.939Z,62.94
2018-01-26T04:23:59.535Z,62.46
2018-01-26T04:24:00.137Z,62.91
2018-01-26T04:24:00.734Z,62.94
2018-01-26T04:24:01.335Z,62.85
2018-01-26T04:24:01.933Z,62.91
2018-01-26T04:24:55.902Z,62.85
2018-01-26T04:24:56.501Z,62.85
2018-01-26T04:24:57.097Z,62.85
2018-01-26T04:24:57.696Z,62.85
2018-01-26T04:24:58.296Z,62.85
2018-01-26T04:24:58.901Z,62.85
2018-01-26T04:24:59.498Z,62.85
2018-01-26T04:26:13.521Z,63.23
2018-01-26T04:26:14.118Z,63.23
2018-01-26T04:26:14.734Z,63.04
2018-01-26T04:26:15.318Z,63.04
2018-01-26T04:26:15.916Z,62.94
2018-01-26T04:26:16.517Z,62.94
2018-01-26T04:26:17.121Z,62.85
2018-01-26T04:27:11.210Z,63.70
2018-01-26T04:27:11.771Z,63.60
2018-01-26T04:27:12.371Z,63.42
2018-01-26T04:27:12.974Z,63.32